Current Weather

Prince Abdulmajeed Bin Abdula

Prince Abdulmajeed Bin Abdula, Saudi Arabia (OEAO)

Report from: Wednesday, September 28, 2022 9:00 AM UTC
Current time: Wednesday, September 28, 2022 9:17 AM UTC

Nearby weather
Weather history
Weather forecast

Temperature38.0°C (100.4°F)
Heat index34.9°C (94.9°F)
Dew point-3.0°C (26.6°F)
Winds Calm
Clouds Sky clear
Altimeter29.94 in.Hg (1014 mB)
Relative humidity7 %
Density altitude2,653 ft. (809 m)
Remarks Ceiling and visibility OK
No significant changes expected in the next two hours
Flight conditions Visual Meteorological Conditions
Raw dataOEAO 280900Z 00000KT CAVOK 38/M03 Q1014 NOSIG
An error has occurred. This application may no longer respond until reloaded. Reload 🗙